createdAt,value
2018-08-17T00:00:19.620Z,7.67
2018-08-17T00:00:54.287Z,5.83
2018-08-17T00:01:28.469Z,7.47
2018-08-17T00:02:02.677Z,4.83
2018-08-17T00:02:37.194Z,5.00
2018-08-17T00:03:11.494Z,7.50
2018-08-17T00:03:45.331Z,5.20
2018-08-17T00:04:19.182Z,6.33
2018-08-17T00:04:53.369Z,5.00
2018-08-17T00:05:27.232Z,5.77
2018-08-17T00:06:01.059Z,6.27
2018-08-17T00:06:34.949Z,4.90
2018-08-17T00:07:08.964Z,8.30
2018-08-17T00:07:43.031Z,5.00
2018-08-17T00:08:17.237Z,8.70
2018-08-17T00:08:51.406Z,5.73
2018-08-17T00:09:25.579Z,7.10
2018-08-17T00:10:00.691Z,4.90
2018-08-17T00:10:34.576Z,4.73
2018-08-17T00:11:08.752Z,6.33
2018-08-17T00:11:42.995Z,5.70
2018-08-17T00:12:16.874Z,13.23
2018-08-17T00:12:51.053Z,5.90
2018-08-17T00:13:25.218Z,7.80
2018-08-17T00:13:59.076Z,7.23
2018-08-17T00:14:33.238Z,6.30
2018-08-17T00:15:07.207Z,5.30
2018-08-17T00:15:41.062Z,4.87
2018-08-17T00:16:14.905Z,5.30
2018-08-17T00:16:48.750Z,9.50
2018-08-17T00:17:22.570Z,8.83
2018-08-17T00:17:56.770Z,6.20
2018-08-17T00:18:30.626Z,6.40
2018-08-17T00:19:04.784Z,6.13
2018-08-17T00:19:42.065Z,5.97
2018-08-17T00:20:15.906Z,5.87
2018-08-17T00:20:49.788Z,10.13
2018-08-17T00:21:23.828Z,6.30
2018-08-17T00:21:57.665Z,5.90
2018-08-17T00:22:31.520Z,9.37
2018-08-17T00:23:05.345Z,5.33
2018-08-17T00:23:39.211Z,5.40
2018-08-17T00:24:13.374Z,8.13
2018-08-17T00:24:47.919Z,8.33
2018-08-17T00:25:21.728Z,5.60
2018-08-17T00:25:56.034Z,7.53
2018-08-17T00:26:29.870Z,9.30
2018-08-17T00:27:03.717Z,8.33
2018-08-17T00:27:37.854Z,5.67
2018-08-17T00:28:12.505Z,7.00
2018-08-17T00:28:46.341Z,5.90
2018-08-17T00:29:20.189Z,5.33
2018-08-17T00:29:54.061Z,7.50
2018-08-17T00:30:28.260Z,6.23
2018-08-17T00:31:02.118Z,7.63
2018-08-17T00:31:36.321Z,8.20
2018-08-17T00:32:10.221Z,9.10
2018-08-17T00:32:44.186Z,5.20
2018-08-17T00:33:18.049Z,10.03
2018-08-17T00:33:51.882Z,6.10
2018-08-17T00:34:26.717Z,5.37
2018-08-17T00:35:00.909Z,7.00
2018-08-17T00:35:34.773Z,7.43
2018-08-17T00:36:08.638Z,10.03
2018-08-17T00:36:42.518Z,5.33
2018-08-17T00:37:16.866Z,4.93
2018-08-17T00:37:50.724Z,6.30
2018-08-17T00:38:24.544Z,6.77
2018-08-17T00:38:58.738Z,6.47
2018-08-17T00:39:32.582Z,6.50
2018-08-17T00:40:06.564Z,5.00
2018-08-17T00:40:40.749Z,6.50
2018-08-17T00:41:14.577Z,7.90
2018-08-17T00:41:48.767Z,7.40
2018-08-17T00:42:22.614Z,5.80
2018-08-17T00:42:56.493Z,4.70
2018-08-17T00:43:30.366Z,5.90
2018-08-17T00:44:04.253Z,8.70
2018-08-17T00:44:38.464Z,7.00
2018-08-17T00:45:12.684Z,5.67
2018-08-17T00:45:46.494Z,6.87
2018-08-17T00:46:20.344Z,12.00
2018-08-17T00:47:00.835Z,6.83
2018-08-17T00:47:35.134Z,10.63
2018-08-17T00:48:08.969Z,5.30
2018-08-17T00:48:43.663Z,4.87
2018-08-17T00:49:17.525Z,10.70
2018-08-17T00:49:51.402Z,6.80
2018-08-17T00:50:25.597Z,7.40
2018-08-17T00:50:59.456Z,7.30
2018-08-17T00:51:33.284Z,9.23
2018-08-17T00:52:07.852Z,5.80
2018-08-17T00:52:41.753Z,7.00
2018-08-17T00:53:15.760Z,5.87
2018-08-17T00:53:50.207Z,7.60
2018-08-17T00:54:24.393Z,9.13
2018-08-17T00:54:58.315Z,8.63
2018-08-17T00:55:32.316Z,7.30
2018-08-17T00:56:06.700Z,5.80
2018-08-17T00:56:40.538Z,6.43
2018-08-17T00:57:14.789Z,8.57
2018-08-17T00:57:48.646Z,5.33
2018-08-17T00:58:22.472Z,8.27
2018-08-17T00:58:56.706Z,4.80
2018-08-17T00:59:30.878Z,7.30
2018-08-17T01:00:05.880Z,5.97
2018-08-17T01:00:40.085Z,9.60
2018-08-17T01:01:13.936Z,11.23
2018-08-17T01:01:48.160Z,8.87
2018-08-17T01:02:22.321Z,5.83
2018-08-17T01:02:56.146Z,7.87
2018-08-17T01:03:30.345Z,6.57
2018-08-17T01:04:04.945Z,9.23
2018-08-17T01:04:38.774Z,6.50
2018-08-17T01:05:12.646Z,7.30
2018-08-17T01:05:46.492Z,5.97
2018-08-17T01:06:20.343Z,5.43
2018-08-17T01:06:54.211Z,5.17
2018-08-17T01:07:28.076Z,8.17
2018-08-17T01:08:02.318Z,8.50
2018-08-17T01:08:36.857Z,10.50
2018-08-17T01:09:11.272Z,7.67
2018-08-17T01:09:45.462Z,9.17
2018-08-17T01:10:19.322Z,8.23
2018-08-17T01:10:53.184Z,8.53
2018-08-17T01:11:27.406Z,6.27
2018-08-17T01:12:01.250Z,9.27
2018-08-17T01:12:35.110Z,7.97
2018-08-17T01:13:14.443Z,5.37
2018-08-17T01:13:48.284Z,6.67
2018-08-17T01:14:22.204Z,6.23
2018-08-17T01:14:56.179Z,5.60
2018-08-17T01:15:30.722Z,6.43
2018-08-17T01:16:04.924Z,8.20
2018-08-17T01:16:39.108Z,6.10
2018-08-17T01:17:13.608Z,5.17
2018-08-17T01:17:47.800Z,4.83
2018-08-17T01:18:21.696Z,6.80
2018-08-17T01:18:55.497Z,5.40
2018-08-17T01:19:29.316Z,5.90
2018-08-17T01:20:03.521Z,9.00
2018-08-17T01:20:37.421Z,6.00
2018-08-17T01:21:11.256Z,5.83
2018-08-17T01:21:45.089Z,6.33
2018-08-17T01:22:18.954Z,8.00
2018-08-17T01:22:52.775Z,8.07
2018-08-17T01:23:26.773Z,6.70
2018-08-17T01:24:00.804Z,12.40
2018-08-17T01:24:34.678Z,8.07
2018-08-17T01:25:08.558Z,8.80
2018-08-17T01:25:42.424Z,5.83
2018-08-17T01:26:16.609Z,7.03
2018-08-17T01:26:50.452Z,5.50
2018-08-17T01:27:24.286Z,6.33
2018-08-17T01:27:58.134Z,10.90
2018-08-17T01:28:32.576Z,7.97
2018-08-17T01:29:06.768Z,5.40
2018-08-17T01:29:40.624Z,13.33
2018-08-17T01:30:14.447Z,5.23
2018-08-17T01:30:48.427Z,4.70
2018-08-17T01:31:22.773Z,5.13
2018-08-17T01:31:56.942Z,9.50
2018-08-17T01:32:30.794Z,5.20
2018-08-17T01:33:04.960Z,6.93
2018-08-17T01:33:38.796Z,8.00
2018-08-17T01:34:13.228Z,6.13
2018-08-17T01:34:47.194Z,9.93
2018-08-17T01:35:21.346Z,6.97
2018-08-17T01:35:55.227Z,8.60
2018-08-17T01:36:29.404Z,5.20
2018-08-17T01:37:04.219Z,6.70
2018-08-17T01:37:38.081Z,5.20
2018-08-17T01:38:12.342Z,5.80
2018-08-17T01:38:46.213Z,15.60
2018-08-17T01:39:20.050Z,6.80
2018-08-17T01:39:54.138Z,5.23
2018-08-17T01:40:28.162Z,7.90
2018-08-17T01:41:02.390Z,4.90
2018-08-17T01:41:36.280Z,5.87
2018-08-17T01:42:10.121Z,7.47
2018-08-17T01:42:43.991Z,7.03
2018-08-17T01:43:17.826Z,6.40
2018-08-17T01:43:51.716Z,6.37
2018-08-17T01:44:25.913Z,6.37
2018-08-17T01:45:00.060Z,9.70
2018-08-17T01:45:33.900Z,5.57
2018-08-17T01:46:07.796Z,7.93
2018-08-17T01:46:42.005Z,10.00
2018-08-17T01:47:16.184Z,5.57
2018-08-17T01:47:50.396Z,5.47
2018-08-17T01:48:24.246Z,5.67
2018-08-17T01:48:58.106Z,6.03
2018-08-17T01:49:31.968Z,7.50
2018-08-17T01:50:06.286Z,6.20
2018-08-17T01:50:40.180Z,6.73
2018-08-17T01:51:14.010Z,10.07
2018-08-17T01:51:48.190Z,11.40
2018-08-17T01:52:22.388Z,7.70
2018-08-17T01:52:56.248Z,7.27
2018-08-17T01:53:30.102Z,7.73
2018-08-17T01:54:03.978Z,9.63
2018-08-17T01:54:37.860Z,8.20
2018-08-17T01:55:12.372Z,12.90
2018-08-17T01:55:46.237Z,6.30
2018-08-17T01:56:20.417Z,8.43
2018-08-17T01:56:54.592Z,6.00
2018-08-17T01:57:28.474Z,5.37
2018-08-17T01:58:02.395Z,5.57
2018-08-17T01:58:36.240Z,10.20
2018-08-17T01:59:10.480Z,5.60
2018-08-17T01:59:44.350Z,6.43
2018-08-17T02:00:18.204Z,11.43
2018-08-17T02:00:52.100Z,9.90
2018-08-17T02:01:26.306Z,5.00
2018-08-17T02:02:00.337Z,6.53
2018-08-17T02:02:34.512Z,5.90
2018-08-17T02:03:08.432Z,5.70
2018-08-17T02:03:42.335Z,10.43
2018-08-17T02:04:16.582Z,13.60
2018-08-17T02:04:50.448Z,7.43
2018-08-17T02:05:24.674Z,6.90
2018-08-17T02:05:58.543Z,8.07
2018-08-17T02:06:32.510Z,10.03
2018-08-17T02:07:07.023Z,6.90
2018-08-17T02:07:41.190Z,6.70
2018-08-17T02:08:15.102Z,5.80
2018-08-17T02:08:48.924Z,8.30
2018-08-17T02:09:23.116Z,7.97
2018-08-17T02:09:56.942Z,10.30
2018-08-17T02:10:30.982Z,8.63
2018-08-17T02:11:05.219Z,18.40
2018-08-17T02:11:39.059Z,5.13
2018-08-17T02:12:13.254Z,6.90
2018-08-17T02:12:47.106Z,6.60
2018-08-17T02:13:21.102Z,5.60
2018-08-17T02:13:55.275Z,6.73
2018-08-17T02:14:29.133Z,7.50
2018-08-17T02:15:03.197Z,10.80
2018-08-17T02:15:37.348Z,6.57
2018-08-17T02:16:11.586Z,5.80
2018-08-17T02:16:45.754Z,5.90
2018-08-17T02:17:19.935Z,5.13
2018-08-17T02:17:53.828Z,9.50
2018-08-17T02:18:27.716Z,6.83
2018-08-17T02:19:01.634Z,7.40
2018-08-17T02:19:35.502Z,13.73
2018-08-17T02:20:09.340Z,9.27
2018-08-17T02:20:43.168Z,5.83
2018-08-17T02:21:17.041Z,7.27
2018-08-17T02:21:50.932Z,11.47
2018-08-17T02:22:25.114Z,8.50
2018-08-17T02:22:58.972Z,7.50
2018-08-17T02:23:32.813Z,6.50
2018-08-17T02:24:06.995Z,9.83
2018-08-17T02:24:40.840Z,6.23
2018-08-17T02:25:14.678Z,7.00
2018-08-17T02:25:48.530Z,7.73
2018-08-17T02:26:22.691Z,7.10
2018-08-17T02:26:56.582Z,4.80
2018-08-17T02:27:30.417Z,5.93
2018-08-17T02:28:04.282Z,7.07
2018-08-17T02:28:38.148Z,6.63
2018-08-17T02:29:12.021Z,5.90
2018-08-17T02:29:45.840Z,5.73
2018-08-17T02:30:19.706Z,9.40
2018-08-17T02:30:53.583Z,4.90
2018-08-17T02:31:27.750Z,5.80
2018-08-17T02:32:01.778Z,9.87
2018-08-17T02:32:35.640Z,6.60
2018-08-17T02:33:09.438Z,7.00
2018-08-17T02:33:43.278Z,6.77
2018-08-17T02:34:17.093Z,8.13
2018-08-17T02:34:50.942Z,6.03
2018-08-17T02:35:24.827Z,4.67
2018-08-17T02:35:59.022Z,6.97
2018-08-17T02:36:33.243Z,7.40
2018-08-17T02:37:07.092Z,7.50
2018-08-17T02:37:40.946Z,6.33
2018-08-17T02:38:14.771Z,7.47
2018-08-17T02:38:48.650Z,10.73
2018-08-17T02:39:22.478Z,8.80
2018-08-17T02:39:56.690Z,8.23
2018-08-17T02:40:30.894Z,7.57
2018-08-17T02:41:05.071Z,10.53
2018-08-17T02:41:38.942Z,6.77
2018-08-17T02:42:12.778Z,9.00
2018-08-17T02:42:46.607Z,5.90
2018-08-17T02:43:20.451Z,5.87
2018-08-17T02:43:54.299Z,7.87
2018-08-17T02:44:28.294Z,5.47
2018-08-17T02:45:02.129Z,5.80
2018-08-17T02:45:35.978Z,7.27
2018-08-17T02:46:09.837Z,8.97
2018-08-17T02:46:43.766Z,11.93
2018-08-17T02:47:17.934Z,9.73
2018-08-17T02:47:51.808Z,7.20
2018-08-17T02:48:25.655Z,7.73
2018-08-17T02:48:59.512Z,8.40
2018-08-17T02:49:33.382Z,7.00
2018-08-17T02:50:07.214Z,9.83
2018-08-17T02:50:41.420Z,7.50
2018-08-17T02:51:15.784Z,7.73
2018-08-17T02:51:49.605Z,5.90
2018-08-17T02:52:23.460Z,6.03
2018-08-17T02:52:57.675Z,5.00
2018-08-17T02:53:31.545Z,5.03
2018-08-17T02:54:05.404Z,6.00
2018-08-17T02:54:39.244Z,6.07
2018-08-17T02:55:13.068Z,5.00
2018-08-17T02:55:46.896Z,9.47
2018-08-17T02:56:20.743Z,6.93
2018-08-17T02:56:54.595Z,7.60
2018-08-17T02:57:28.400Z,10.10
2018-08-17T02:58:02.257Z,5.07
2018-08-17T02:58:36.380Z,5.23
2018-08-17T02:59:10.471Z,10.67
2018-08-17T02:59:44.977Z,5.97
2018-08-17T03:00:18.801Z,5.90
2018-08-17T03:00:52.969Z,6.17
2018-08-17T03:01:26.814Z,4.13
2018-08-17T03:02:00.972Z,5.70
2018-08-17T03:02:34.823Z,7.63
2018-08-17T03:03:08.970Z,5.10
2018-08-17T03:03:42.816Z,6.17
2018-08-17T03:04:16.615Z,6.43
2018-08-17T03:04:50.796Z,6.50
2018-08-17T03:05:25.255Z,6.20
2018-08-17T03:05:59.118Z,6.00
2018-08-17T03:06:33.022Z,5.70
2018-08-17T03:07:06.981Z,6.10
2018-08-17T03:07:40.840Z,4.93
2018-08-17T03:08:14.667Z,12.77
2018-08-17T03:08:48.496Z,8.23
2018-08-17T03:09:22.663Z,8.83
2018-08-17T03:09:56.857Z,6.53
2018-08-17T03:10:30.701Z,10.27
2018-08-17T03:11:05.117Z,6.50
2018-08-17T03:11:39.324Z,7.87
2018-08-17T03:12:13.155Z,5.57
2018-08-17T03:12:47.004Z,8.00
2018-08-17T03:13:20.815Z,6.53
2018-08-17T03:13:54.694Z,7.00
2018-08-17T03:14:28.909Z,8.87
2018-08-17T03:15:02.756Z,8.13
2018-08-17T03:15:36.599Z,7.40
2018-08-17T03:16:10.447Z,5.60
2018-08-17T03:16:44.316Z,8.10
2018-08-17T03:17:18.165Z,6.20
2018-08-17T03:17:52.042Z,7.77
2018-08-17T03:18:26.242Z,5.93
2018-08-17T03:19:00.061Z,5.57
2018-08-17T03:19:34.031Z,7.83
2018-08-17T03:20:07.865Z,5.10
2018-08-17T03:20:42.042Z,6.07
2018-08-17T03:21:15.918Z,8.30
2018-08-17T03:21:49.804Z,6.90
2018-08-17T03:22:23.653Z,5.93
2018-08-17T03:22:57.497Z,5.70
2018-08-17T03:23:31.325Z,11.00
2018-08-17T03:24:05.531Z,7.70
2018-08-17T03:24:39.691Z,8.57
2018-08-17T03:25:13.526Z,8.77
2018-08-17T03:25:47.341Z,5.03
2018-08-17T03:26:21.509Z,5.00
2018-08-17T03:26:55.369Z,8.87
2018-08-17T03:27:29.256Z,5.13
2018-08-17T03:28:03.096Z,5.93
2018-08-17T03:28:36.948Z,4.87
2018-08-17T03:29:10.815Z,9.13
2018-08-17T03:29:44.684Z,7.83
2018-08-17T03:30:19.169Z,8.40
2018-08-17T03:30:53.017Z,5.43
2018-08-17T03:31:26.861Z,4.50
2018-08-17T03:32:01.113Z,5.60
2018-08-17T03:32:35.001Z,6.10
2018-08-17T03:33:09.604Z,6.40
2018-08-17T03:34:46.695Z,12.83
2018-08-17T03:36:00.991Z,5.83
2018-08-17T03:36:34.823Z,6.67
2018-08-17T03:37:09.505Z,5.10
2018-08-17T03:37:43.505Z,5.60
2018-08-17T03:38:17.321Z,5.00
2018-08-17T03:38:51.151Z,4.93
2018-08-17T03:39:24.999Z,5.00
2018-08-17T03:39:58.833Z,7.33
2018-08-17T03:40:32.663Z,5.50
2018-08-17T03:41:06.797Z,5.40
2018-08-17T03:41:41.015Z,7.87
2018-08-17T03:42:15.231Z,6.77
2018-08-17T03:42:49.064Z,5.60
2018-08-17T03:43:22.929Z,6.17
2018-08-17T03:43:56.754Z,9.70
2018-08-17T03:44:30.587Z,6.67
2018-08-17T03:45:05.440Z,11.17
2018-08-17T03:45:39.288Z,9.20
2018-08-17T03:46:13.467Z,5.13
2018-08-17T03:46:47.327Z,15.33
2018-08-17T03:47:21.289Z,9.23
2018-08-17T03:47:55.128Z,6.90
2018-08-17T03:48:28.965Z,8.77
2018-08-17T03:49:02.808Z,5.70
2018-08-17T03:49:36.660Z,7.67
2018-08-17T03:50:11.191Z,7.23
2018-08-17T03:50:45.025Z,7.27
2018-08-17T03:51:19.220Z,6.87
2018-08-17T03:51:53.079Z,7.37
2018-08-17T03:52:26.957Z,7.10
2018-08-17T03:53:00.833Z,8.53
2018-08-17T03:53:35.079Z,12.50
2018-08-17T03:54:09.251Z,7.57
2018-08-17T03:54:43.171Z,7.47
2018-08-17T03:55:17.359Z,11.53
2018-08-17T03:55:51.539Z,7.27
2018-08-17T03:56:25.786Z,9.07
2018-08-17T03:56:59.637Z,10.20
2018-08-17T03:57:33.533Z,12.80
2018-08-17T03:58:07.840Z,7.97
2018-08-17T03:58:41.691Z,8.30
2018-08-17T03:59:15.571Z,8.70
2018-08-17T03:59:49.419Z,5.90
2018-08-17T04:00:23.621Z,10.23
2018-08-17T04:00:57.823Z,13.50
2018-08-17T04:01:31.679Z,9.87
2018-08-17T04:02:06.060Z,7.50
2018-08-17T04:02:40.269Z,8.90
2018-08-17T04:03:14.237Z,9.10
2018-08-17T04:03:48.121Z,12.30
2018-08-17T04:04:22.039Z,6.93
2018-08-17T04:04:56.393Z,6.30
2018-08-17T04:05:30.299Z,7.60
2018-08-17T04:06:04.540Z,7.13
2018-08-17T04:06:38.689Z,5.20
2018-08-17T04:07:12.563Z,7.07
2018-08-17T04:07:46.453Z,7.13
2018-08-17T04:08:20.292Z,9.83
2018-08-17T04:08:54.130Z,8.77
2018-08-17T04:09:28.005Z,8.77
2018-08-17T04:10:01.860Z,6.03
2018-08-17T04:10:35.691Z,6.43
2018-08-17T04:11:09.926Z,7.97
2018-08-17T04:11:44.195Z,6.20
2018-08-17T04:12:18.381Z,6.03
2018-08-17T04:12:52.227Z,8.57
2018-08-17T04:13:26.103Z,8.60
2018-08-17T04:13:59.961Z,6.17
2018-08-17T04:14:33.848Z,8.00
2018-08-17T04:15:08.758Z,11.63
2018-08-17T04:15:42.619Z,7.73
2018-08-17T04:16:16.477Z,7.67
2018-08-17T04:16:50.699Z,9.70
2018-08-17T04:17:24.546Z,9.47
2018-08-17T04:17:58.433Z,7.30
2018-08-17T04:18:32.308Z,6.80
2018-08-17T04:19:06.180Z,7.73
2018-08-17T04:19:40.017Z,8.53
2018-08-17T04:20:13.990Z,8.87
2018-08-17T04:20:48.174Z,7.10
2018-08-17T04:21:22.387Z,17.23
2018-08-17T04:21:56.232Z,8.97
2018-08-17T04:22:30.071Z,7.00
2018-08-17T04:23:03.952Z,8.30
2018-08-17T04:23:37.821Z,9.70
2018-08-17T04:24:11.655Z,7.23
2018-08-17T04:24:45.605Z,7.53
2018-08-17T04:25:19.441Z,6.63
2018-08-17T04:25:53.719Z,5.63
2018-08-17T04:26:27.627Z,5.87
2018-08-17T04:27:01.785Z,7.13
2018-08-17T04:27:36.071Z,7.07
2018-08-17T04:28:09.917Z,5.83
2018-08-17T04:28:43.753Z,9.50
2018-08-17T04:29:17.653Z,12.67
2018-08-17T04:29:51.517Z,6.03
2018-08-17T04:30:25.363Z,8.40
2018-08-17T04:30:59.190Z,6.60
2018-08-17T04:31:33.430Z,9.67
2018-08-17T04:32:08.229Z,6.23
2018-08-17T04:32:42.200Z,8.93
2018-08-17T04:33:16.031Z,5.50
2018-08-17T04:33:49.904Z,8.07
2018-08-17T04:34:25.203Z,5.83
2018-08-17T04:34:59.052Z,5.97
2018-08-17T04:35:32.979Z,9.20
2018-08-17T04:36:06.979Z,7.33
2018-08-17T04:36:40.839Z,12.40
2018-08-17T04:37:14.697Z,6.30
2018-08-17T04:37:48.597Z,7.20
2018-08-17T04:38:22.460Z,5.80
2018-08-17T04:38:56.662Z,7.40
2018-08-17T04:39:30.545Z,5.47
2018-08-17T04:40:05.427Z,7.93
2018-08-17T04:40:39.613Z,5.90
2018-08-17T04:41:13.891Z,5.27
2018-08-17T04:41:47.857Z,6.03
2018-08-17T04:42:22.094Z,5.57
2018-08-17T04:42:55.972Z,8.67
2018-08-17T04:43:29.888Z,6.27
2018-08-17T04:44:03.818Z,5.17
2018-08-17T04:44:38.050Z,10.43
2018-08-17T04:45:12.253Z,5.90
2018-08-17T04:45:46.104Z,5.40
2018-08-17T04:46:20.353Z,7.13
2018-08-17T04:46:54.201Z,5.60
2018-08-17T04:47:28.033Z,6.27
2018-08-17T04:48:01.901Z,4.90
2018-08-17T04:48:35.773Z,5.90
2018-08-17T04:49:09.627Z,6.40
2018-08-17T04:49:43.681Z,10.27
2018-08-17T04:50:18.224Z,7.30
2018-08-17T04:50:52.084Z,6.67
2018-08-17T04:51:25.979Z,7.80
2018-08-17T04:51:59.863Z,5.00
2018-08-17T04:52:33.711Z,9.43
2018-08-17T04:53:07.929Z,7.73
2018-08-17T04:53:41.785Z,5.83
2018-08-17T04:54:15.647Z,8.70
2018-08-17T04:54:50.085Z,8.53
2018-08-17T04:55:23.939Z,7.53
2018-08-17T04:55:57.776Z,11.10
2018-08-17T04:56:31.619Z,8.70
2018-08-17T04:57:05.481Z,7.50
2018-08-17T04:57:39.332Z,10.20
2018-08-17T04:58:13.214Z,6.50
2018-08-17T04:58:47.083Z,4.33
2018-08-17T04:59:20.971Z,7.00
2018-08-17T04:59:54.837Z,6.40
2018-08-17T05:00:28.658Z,5.83
2018-08-17T05:01:02.884Z,5.80
2018-08-17T05:01:36.755Z,7.70
2018-08-17T05:02:10.705Z,7.00
2018-08-17T05:02:44.523Z,5.60
2018-08-17T05:03:18.447Z,5.90
2018-08-17T05:03:52.459Z,7.40
2018-08-17T05:04:26.937Z,5.97
2018-08-17T05:05:00.780Z,7.10
2018-08-17T05:05:34.664Z,9.73
2018-08-17T05:06:08.873Z,5.23
2018-08-17T05:06:43.388Z,6.80
2018-08-17T05:07:17.585Z,5.17
2018-08-17T05:07:51.442Z,10.03
2018-08-17T05:08:25.319Z,8.03
2018-08-17T05:08:59.832Z,7.43
2018-08-17T05:09:33.848Z,12.50
2018-08-17T05:10:08.536Z,16.63
2018-08-17T05:10:42.447Z,11.73
2018-08-17T05:11:16.689Z,16.57
2018-08-17T05:11:50.577Z,14.40
2018-08-17T05:12:25.098Z,15.00
2018-08-17T05:12:59.285Z,24.53
2018-08-17T05:13:33.221Z,12.30
2018-08-17T05:14:07.132Z,15.00
2018-08-17T05:14:40.982Z,22.93
2018-08-17T05:15:14.841Z,16.23
2018-08-17T05:15:48.711Z,20.33
2018-08-17T05:16:22.600Z,23.13
2018-08-17T05:16:56.471Z,20.27
2018-08-17T05:17:30.333Z,23.73
2018-08-17T05:18:04.228Z,23.50
2018-08-17T05:18:38.441Z,20.50
2018-08-17T05:19:12.323Z,26.40
2018-08-17T05:19:46.171Z,22.90
2018-08-17T05:20:20.029Z,16.50
2018-08-17T05:20:53.904Z,31.87
2018-08-17T05:21:27.799Z,28.23
2018-08-17T05:22:01.790Z,28.33
2018-08-17T05:22:35.682Z,27.27
2018-08-17T05:23:09.841Z,25.27
2018-08-17T05:23:44.254Z,27.43
2018-08-17T05:24:18.098Z,29.60
2018-08-17T05:25:32.102Z,20.67
2018-08-17T05:26:06.334Z,22.63
2018-08-17T05:26:40.216Z,16.67
2018-08-17T05:27:14.160Z,22.77
2018-08-17T05:27:48.026Z,20.53
2018-08-17T05:28:21.906Z,26.03
2018-08-17T05:28:56.186Z,11.47
2018-08-17T05:29:30.023Z,19.43
2018-08-17T05:30:04.000Z,15.00
2018-08-17T05:30:37.838Z,13.70
2018-08-17T05:31:11.682Z,14.70
2018-08-17T05:31:45.550Z,15.23
2018-08-17T05:32:20.084Z,27.67
2018-08-17T05:32:54.301Z,20.93
2018-08-17T05:33:28.149Z,11.17
2018-08-17T05:34:02.405Z,16.07
2018-08-17T05:34:36.354Z,18.27
2018-08-17T05:35:10.209Z,14.67
2018-08-17T05:35:44.112Z,19.03
2018-08-17T05:36:17.959Z,10.63
2018-08-17T05:36:52.162Z,12.50
2018-08-17T05:37:26.055Z,11.27
2018-08-17T05:38:00.276Z,19.77
2018-08-17T05:38:34.177Z,12.93
2018-08-17T05:39:09.340Z,12.53
2018-08-17T05:39:43.214Z,13.50
2018-08-17T05:40:17.086Z,10.33
2018-08-17T05:40:51.574Z,7.90
2018-08-17T05:41:25.811Z,10.83
2018-08-17T05:41:59.668Z,15.50
2018-08-17T05:42:33.534Z,12.23
2018-08-17T05:43:07.388Z,6.30
2018-08-17T05:43:41.298Z,14.40
2018-08-17T05:44:15.344Z,9.53
2018-08-17T05:44:49.204Z,7.37
2018-08-17T05:45:23.420Z,11.20
2018-08-17T05:45:57.650Z,8.80
2018-08-17T05:46:31.872Z,13.60
2018-08-17T05:47:05.736Z,8.63
2018-08-17T05:47:39.960Z,12.20
2018-08-17T05:48:14.130Z,14.47
2018-08-17T05:48:48.056Z,11.07
2018-08-17T05:49:22.067Z,9.70
2018-08-17T05:49:55.920Z,6.97
2018-08-17T05:50:32.964Z,8.27
2018-08-17T05:51:06.814Z,13.00
2018-08-17T05:51:40.717Z,7.90
2018-08-17T05:52:14.560Z,13.00
2018-08-17T05:52:48.774Z,10.60
2018-08-17T05:53:22.966Z,13.07
2018-08-17T05:53:57.556Z,5.77
2018-08-17T05:54:31.390Z,7.77
2018-08-17T05:55:05.874Z,7.43
2018-08-17T05:55:39.767Z,9.07
2018-08-17T05:56:13.622Z,10.90
2018-08-17T05:56:47.565Z,7.40
2018-08-17T05:57:21.540Z,6.70
2018-08-17T05:57:55.453Z,9.50
2018-08-17T05:58:29.344Z,10.03
2018-08-17T05:59:03.595Z,7.67
2018-08-17T05:59:37.457Z,10.60
2018-08-17T06:00:11.287Z,15.80
2018-08-17T06:00:45.480Z,13.63
2018-08-17T06:01:19.921Z,9.37
2018-08-17T06:01:53.825Z,11.83
2018-08-17T06:02:27.710Z,12.17
2018-08-17T06:03:01.905Z,9.70
2018-08-17T06:03:35.834Z,8.70
2018-08-17T06:04:09.725Z,12.73
2018-08-17T06:04:43.926Z,10.00
2018-08-17T06:05:18.449Z,11.27
2018-08-17T06:05:52.644Z,12.40
2018-08-17T06:06:26.845Z,7.30
2018-08-17T06:07:01.084Z,9.53
2018-08-17T06:07:35.433Z,6.27
2018-08-17T06:08:09.388Z,8.20
2018-08-17T06:08:43.658Z,15.07
2018-08-17T06:09:17.514Z,7.47
2018-08-17T06:09:51.379Z,7.90
2018-08-17T06:10:25.227Z,11.23
2018-08-17T06:10:59.244Z,6.20
2018-08-17T06:11:33.268Z,10.20
2018-08-17T06:12:07.629Z,9.57
2018-08-17T06:12:41.589Z,11.37
2018-08-17T06:13:15.418Z,8.17
2018-08-17T06:13:49.968Z,10.53
2018-08-17T06:14:24.274Z,10.47
2018-08-17T06:14:58.792Z,4.80
2018-08-17T06:15:32.984Z,12.93
2018-08-17T06:16:07.536Z,9.90
2018-08-17T06:16:41.389Z,11.10
2018-08-17T06:17:15.266Z,12.53
2018-08-17T06:17:49.090Z,15.03
2018-08-17T06:18:23.270Z,9.73
2018-08-17T06:18:57.141Z,9.37
2018-08-17T06:19:31.361Z,13.93
2018-08-17T06:20:05.944Z,9.33
2018-08-17T06:20:40.152Z,10.00
2018-08-17T06:21:13.992Z,5.10
2018-08-17T06:21:47.886Z,6.10
2018-08-17T06:22:21.800Z,13.20
2018-08-17T06:22:56.038Z,11.43
2018-08-17T06:23:30.445Z,7.30
2018-08-17T06:24:04.686Z,11.70
2018-08-17T06:24:38.911Z,6.43
2018-08-17T06:25:14.274Z,9.53
2018-08-17T06:25:48.800Z,7.80
2018-08-17T06:26:22.642Z,14.00
2018-08-17T06:26:57.174Z,12.27
2018-08-17T06:27:31.408Z,8.37
2018-08-17T06:28:05.250Z,7.23
2018-08-17T06:28:39.064Z,6.77
2018-08-17T06:29:12.884Z,7.87
2018-08-17T06:29:46.746Z,9.83
2018-08-17T06:30:20.598Z,11.10
2018-08-17T06:30:54.522Z,9.70
2018-08-17T06:31:28.738Z,6.97
2018-08-17T06:32:02.923Z,6.80
2018-08-17T06:32:36.950Z,13.13
2018-08-17T06:33:10.794Z,6.70
2018-08-17T06:33:44.882Z,6.93
2018-08-17T06:34:18.772Z,10.73
2018-08-17T06:34:52.660Z,8.50
2018-08-17T06:35:26.934Z,6.17
2018-08-17T06:36:01.424Z,6.03
2018-08-17T06:36:35.488Z,7.87
2018-08-17T06:37:10.642Z,10.37
2018-08-17T06:37:45.038Z,7.17
2018-08-17T06:39:22.192Z,8.00
2018-08-17T06:39:56.041Z,4.63
2018-08-17T06:40:30.289Z,9.90
2018-08-17T06:41:04.152Z,9.63
2018-08-17T06:41:38.688Z,5.17
2018-08-17T06:42:13.179Z,9.60
2018-08-17T06:42:47.789Z,7.90
2018-08-17T06:43:22.018Z,16.53
2018-08-17T06:43:56.196Z,9.90
2018-08-17T06:44:30.184Z,10.43
2018-08-17T06:45:04.674Z,9.97
2018-08-17T06:45:38.529Z,9.10
2018-08-17T06:46:12.715Z,8.43
2018-08-17T06:46:46.551Z,9.33
2018-08-17T06:47:21.236Z,7.50
2018-08-17T06:47:55.428Z,11.33
2018-08-17T06:48:29.424Z,7.63
2018-08-17T06:49:03.629Z,10.47
2018-08-17T06:49:37.632Z,6.40
2018-08-17T06:50:12.275Z,5.73
2018-08-17T06:50:46.612Z,9.63
2018-08-17T06:51:20.715Z,6.20
2018-08-17T06:51:54.600Z,6.90
2018-08-17T06:52:28.774Z,6.93
2018-08-17T06:53:02.971Z,10.73
2018-08-17T06:53:37.821Z,6.07
2018-08-17T06:54:12.020Z,7.07
2018-08-17T06:54:45.928Z,8.33
2018-08-17T06:55:19.851Z,6.37
2018-08-17T06:55:54.034Z,8.67
2018-08-17T06:56:27.892Z,7.30
2018-08-17T06:57:01.799Z,8.93
2018-08-17T06:57:35.870Z,14.00
2018-08-17T06:58:09.732Z,7.43
2018-08-17T06:58:43.614Z,10.03
2018-08-17T06:59:17.478Z,6.40
2018-08-17T06:59:51.405Z,8.70
2018-08-17T07:00:25.605Z,8.10
2018-08-17T07:00:59.457Z,9.13
2018-08-17T07:01:33.862Z,8.90
2018-08-17T07:02:08.062Z,10.43
2018-08-17T07:02:44.697Z,16.10
2018-08-17T07:03:18.964Z,10.03
2018-08-17T07:03:53.588Z,7.17
2018-08-17T07:04:27.442Z,7.30
2018-08-17T07:05:01.744Z,7.90
2018-08-17T07:05:35.644Z,9.20
2018-08-17T07:06:09.848Z,9.40
2018-08-17T07:06:44.064Z,7.00
2018-08-17T07:07:18.235Z,5.83
2018-08-17T07:07:52.458Z,7.90
2018-08-17T07:08:26.317Z,5.90
2018-08-17T07:09:00.593Z,7.00
2018-08-17T07:09:34.695Z,7.20
2018-08-17T07:10:11.026Z,6.10
2018-08-17T07:10:44.892Z,6.10
2018-08-17T07:11:18.750Z,15.90
2018-08-17T07:11:53.289Z,7.60
2018-08-17T07:12:28.006Z,5.70
2018-08-17T07:13:02.885Z,6.33
2018-08-17T07:13:37.142Z,8.13
2018-08-17T07:14:11.676Z,5.77
2018-08-17T07:14:45.681Z,6.57
2018-08-17T07:15:19.572Z,7.80
2018-08-17T07:15:53.788Z,6.23
2018-08-17T07:16:27.831Z,5.47
2018-08-17T07:17:01.898Z,6.90
2018-08-17T07:17:36.252Z,6.80
2018-08-17T07:18:10.303Z,9.13
2018-08-17T07:18:44.322Z,6.77
2018-08-17T07:19:18.169Z,7.47
2018-08-17T07:19:52.508Z,9.00
2018-08-17T07:20:27.037Z,12.13
2018-08-17T07:21:02.174Z,6.80
2018-08-17T07:21:37.445Z,9.30
2018-08-17T07:22:11.832Z,11.67
2018-08-17T07:22:45.676Z,6.30
2018-08-17T07:23:19.532Z,8.80
2018-08-17T07:23:53.381Z,6.90
2018-08-17T07:24:27.548Z,8.40
2018-08-17T07:25:01.724Z,9.13
2018-08-17T07:25:35.640Z,7.67
2018-08-17T07:26:09.478Z,8.90
2018-08-17T07:26:43.988Z,6.33
2018-08-17T07:27:17.853Z,6.60
2018-08-17T07:27:52.153Z,7.20
2018-08-17T07:28:26.124Z,7.83
2018-08-17T07:28:59.954Z,8.07
2018-08-17T07:29:34.125Z,7.10
2018-08-17T07:30:08.978Z,9.30
2018-08-17T07:30:42.860Z,6.53
2018-08-17T07:31:17.026Z,8.30
2018-08-17T07:31:50.881Z,10.40
2018-08-17T07:32:25.117Z,8.47
2018-08-17T07:32:58.978Z,8.07
2018-08-17T07:33:32.817Z,7.33